Fort Robinson, Pennsylvania
Current Conditions -  °F | °C
As of 2:56 AM on Sunday 26 Oct 2014 (Local Time) from KCXY Reporting Station
Few Clouds Few Clouds  
Wind Chill: 63°   Ceiling: Unl
Heat Index: 63°   Visibility: 10mi
Dew Point: 37°   Wind: 18mph
Humidity: 38%   Direction: 300°WNW
Pressure: 29.65"   Gusts: 28mph
Location:  40.3674°N, 77.4381°W
Report Text: KCXY 260656Z AUTO 30016G24KT 10SM FEW080 17/03 A2965 RMK AO2 SLP040 T01720028
Loading
Personal Weather Stations






























Interactive Weather Map
Tropical Storm Tracking
New forecast layout! Learn more

10-Day Weather Forecast

Advertisements
Track Severe Weather on mobile